createdAt,value
2022-08-14T00:00:11.268Z,68.86
2022-08-14T00:02:44.212Z,68.88
2022-08-14T00:05:16.222Z,69.09
2022-08-14T00:07:46.322Z,69.01
2022-08-14T00:10:51.756Z,69.51
2022-08-14T00:13:08.212Z,69.57
2022-08-14T00:15:48.184Z,69.40
2022-08-14T00:18:30.516Z,69.61
2022-08-14T00:21:11.167Z,70.38
2022-08-14T00:23:40.793Z,70.05
2022-08-14T00:26:22.973Z,69.65
2022-08-14T00:28:54.865Z,70.49
2022-08-14T00:31:30.854Z,71.03
2022-08-14T00:34:37.870Z,70.92
2022-08-14T00:37:02.097Z,70.44
2022-08-14T00:39:31.810Z,70.75
2022-08-14T00:42:01.215Z,70.62
2022-08-14T00:44:33.494Z,71.05
2022-08-14T00:47:03.691Z,70.77
2022-08-14T00:49:42.583Z,71.32
2022-08-14T00:52:14.004Z,71.22
2022-08-14T00:54:43.840Z,71.74
2022-08-14T00:57:14.781Z,71.78
2022-08-14T00:59:45.617Z,71.28
2022-08-14T01:02:19.990Z,71.04
2022-08-14T01:04:54.520Z,70.49
2022-08-14T01:07:27.349Z,70.90
2022-08-14T01:10:01.612Z,71.13
2022-08-14T01:12:31.601Z,70.37
2022-08-14T01:15:05.590Z,70.56
2022-08-14T01:17:56.375Z,70.73
2022-08-14T01:20:43.514Z,70.84
2022-08-14T01:23:18.886Z,70.62
2022-08-14T01:25:51.100Z,70.97
2022-08-14T01:28:46.769Z,70.47
2022-08-14T01:31:14.359Z,70.04
2022-08-14T01:33:59.954Z,70.59
2022-08-14T01:36:39.302Z,70.53
2022-08-14T01:39:13.582Z,70.09
2022-08-14T01:41:46.726Z,70.18
2022-08-14T01:44:32.089Z,70.42
2022-08-14T01:47:11.832Z,70.05
2022-08-14T01:49:59.067Z,70.11
2022-08-14T01:52:58.779Z,69.92
2022-08-14T01:55:30.630Z,70.03
2022-08-14T01:58:18.929Z,70.15
2022-08-14T02:00:55.146Z,70.36
2022-08-14T02:03:29.786Z,70.25
2022-08-14T02:06:04.078Z,71.29
2022-08-14T02:08:53.282Z,71.38
2022-08-14T02:11:26.887Z,70.87
2022-08-14T02:14:07.575Z,70.91
2022-08-14T02:16:39.612Z,70.90
2022-08-14T02:19:13.534Z,71.04
2022-08-14T02:21:48.833Z,70.70
2022-08-14T02:24:39.068Z,70.71
2022-08-14T02:28:22.183Z,70.79
2022-08-14T02:30:02.404Z,71.18
2022-08-14T02:32:36.338Z,71.28
2022-08-14T02:35:10.348Z,71.33
2022-08-14T02:37:47.810Z,71.73
2022-08-14T02:40:18.551Z,72.36
2022-08-14T02:42:55.156Z,72.61
2022-08-14T02:45:33.416Z,72.81
2022-08-14T02:48:10.357Z,73.18
2022-08-14T02:50:57.721Z,73.04
2022-08-14T02:53:31.324Z,73.59
2022-08-14T02:56:02.468Z,73.60
2022-08-14T02:58:37.434Z,72.65
2022-08-14T03:01:12.446Z,72.87
2022-08-14T03:03:41.801Z,73.14
2022-08-14T03:06:13.533Z,73.37
2022-08-14T03:08:49.800Z,73.02
2022-08-14T03:11:19.714Z,72.95
2022-08-14T03:13:52.625Z,72.96
2022-08-14T03:16:26.886Z,73.65
2022-08-14T03:19:00.239Z,73.80
2022-08-14T03:21:31.371Z,73.58
2022-08-14T03:24:21.615Z,73.48
2022-08-14T03:26:57.572Z,73.64
2022-08-14T03:29:29.481Z,73.64
2022-08-14T03:31:59.406Z,73.92
2022-08-14T03:34:48.127Z,74.32
2022-08-14T03:37:51.226Z,74.35
2022-08-14T03:40:11.248Z,74.35
2022-08-14T03:42:40.737Z,74.80
2022-08-14T03:45:20.069Z,75.38
2022-08-14T03:48:02.148Z,75.07
2022-08-14T03:50:34.042Z,75.04
2022-08-14T03:53:03.611Z,74.95
2022-08-14T03:55:32.797Z,75.13
2022-08-14T03:58:01.831Z,74.89
2022-08-14T04:00:43.288Z,74.63
2022-08-14T04:03:23.629Z,74.61
2022-08-14T04:05:53.857Z,74.64
2022-08-14T04:08:31.024Z,75.27
2022-08-14T04:11:02.781Z,75.30
2022-08-14T04:13:39.687Z,74.67
2022-08-14T04:16:14.793Z,74.91
2022-08-14T04:18:46.169Z,74.73
2022-08-14T04:21:17.824Z,75.36
2022-08-14T04:23:56.903Z,75.39
2022-08-14T04:26:42.352Z,74.91
2022-08-14T04:29:15.019Z,75.22
2022-08-14T04:33:02.840Z,75.14
2022-08-14T04:34:36.404Z,75.18
2022-08-14T04:37:38.938Z,74.88
2022-08-14T04:40:28.223Z,74.91
2022-08-14T04:43:17.398Z,75.46
2022-08-14T04:45:51.169Z,74.80
2022-08-14T04:48:39.064Z,75.00
2022-08-14T04:51:14.028Z,75.14
2022-08-14T04:53:44.937Z,75.27
2022-08-14T04:56:34.028Z,74.80
2022-08-14T04:59:10.053Z,75.06
2022-08-14T05:01:47.720Z,74.82
2022-08-14T05:04:21.286Z,74.86
2022-08-14T05:06:53.482Z,74.95
2022-08-14T05:09:24.601Z,75.28
2022-08-14T05:13:14.049Z,75.51
2022-08-14T05:14:55.302Z,75.50
2022-08-14T05:17:31.896Z,74.55
2022-08-14T05:21:04.474Z,74.48
2022-08-14T05:23:04.447Z,74.67
2022-08-14T05:25:34.364Z,74.88
2022-08-14T05:28:12.421Z,74.77
2022-08-14T05:30:46.258Z,73.83
2022-08-14T05:33:16.196Z,73.10
2022-08-14T05:35:47.875Z,72.44
2022-08-14T05:38:22.282Z,71.88
2022-08-14T05:41:02.507Z,70.75
2022-08-14T05:43:41.301Z,70.34
2022-08-14T05:46:15.273Z,69.66
2022-08-14T05:48:45.325Z,69.59
2022-08-14T05:51:16.397Z,69.19
2022-08-14T05:54:01.694Z,69.55
2022-08-14T05:56:36.954Z,68.18
2022-08-14T05:59:07.204Z,65.99
2022-08-14T06:01:36.848Z,65.01
2022-08-14T06:04:06.409Z,64.09
2022-08-14T06:06:38.501Z,63.91
2022-08-14T06:09:09.857Z,63.49
2022-08-14T06:11:39.547Z,63.25
2022-08-14T06:14:20.827Z,62.86
2022-08-14T06:16:52.976Z,63.67
2022-08-14T06:19:23.431Z,64.95
2022-08-14T06:21:59.108Z,62.53
2022-08-14T06:24:30.641Z,62.95
2022-08-14T06:27:05.888Z,60.94
2022-08-14T06:29:36.268Z,60.40
2022-08-14T06:32:37.763Z,60.65
2022-08-14T06:35:02.592Z,60.34
2022-08-14T06:37:43.614Z,59.88
2022-08-14T06:40:16.788Z,62.15
2022-08-14T06:42:55.939Z,63.15
2022-08-14T06:45:26.484Z,63.24
2022-08-14T06:47:58.797Z,61.88
2022-08-14T06:50:30.238Z,59.79
2022-08-14T06:53:01.053Z,59.66
2022-08-14T06:55:30.372Z,58.56
2022-08-14T06:57:59.798Z,61.39
2022-08-14T07:00:32.626Z,58.42
2022-08-14T07:03:21.729Z,60.50
2022-08-14T07:05:55.967Z,59.35
2022-08-14T07:08:31.523Z,57.94
2022-08-14T07:11:04.257Z,60.00
2022-08-14T07:13:33.600Z,59.31
2022-08-14T07:16:05.516Z,57.16
2022-08-14T07:18:37.253Z,58.02
2022-08-14T07:21:10.592Z,58.95
2022-08-14T07:23:44.150Z,58.54
2022-08-14T07:26:13.977Z,60.04
2022-08-14T07:28:44.143Z,60.25
2022-08-14T07:31:13.886Z,60.82
2022-08-14T07:33:50.391Z,62.58
2022-08-14T07:36:27.563Z,61.83
2022-08-14T07:39:03.000Z,60.08
2022-08-14T07:41:35.618Z,56.80
2022-08-14T07:44:32.437Z,56.14
2022-08-14T07:46:54.595Z,56.34
2022-08-14T07:49:24.742Z,54.31
2022-08-14T07:51:53.934Z,56.72
2022-08-14T07:54:29.831Z,54.21
2022-08-14T07:57:12.121Z,53.78
2022-08-14T07:59:44.640Z,54.43
2022-08-14T08:02:20.422Z,55.01
2022-08-14T08:04:55.142Z,52.64
2022-08-14T08:07:30.030Z,51.89
2022-08-14T08:10:46.292Z,52.99
2022-08-14T08:13:15.906Z,51.82
2022-08-14T08:15:47.994Z,50.67
2022-08-14T08:18:20.466Z,52.62
2022-08-14T08:20:59.225Z,50.48
2022-08-14T08:23:40.090Z,49.69
2022-08-14T08:26:11.569Z,50.90
2022-08-14T08:28:43.959Z,55.10
2022-08-14T08:31:13.717Z,51.01
2022-08-14T08:33:44.870Z,49.63
2022-08-14T08:36:19.268Z,53.26
2022-08-14T08:39:17.001Z,50.92
2022-08-14T08:41:50.482Z,50.42
2022-08-14T08:44:34.467Z,48.05
2022-08-14T08:47:07.635Z,50.24
2022-08-14T08:49:43.344Z,49.59
2022-08-14T08:52:24.901Z,51.59
2022-08-14T08:54:58.044Z,48.63
2022-08-14T08:57:35.773Z,48.68
2022-08-14T09:00:25.127Z,47.31
2022-08-14T09:03:00.283Z,45.90
2022-08-14T09:05:30.007Z,45.57
2022-08-14T09:08:30.700Z,48.28
2022-08-14T09:11:19.380Z,46.73
2022-08-14T09:13:53.827Z,50.22
2022-08-14T09:16:25.349Z,48.61
2022-08-14T09:18:55.988Z,49.99
2022-08-14T09:21:30.936Z,48.82
2022-08-14T09:24:29.566Z,50.92
2022-08-14T09:26:50.771Z,49.65
2022-08-14T09:29:23.393Z,48.18
2022-08-14T09:31:57.545Z,47.95
2022-08-14T09:34:58.325Z,47.63
2022-08-14T09:37:39.191Z,47.65
2022-08-14T09:40:21.299Z,45.41
2022-08-14T09:43:01.385Z,47.99
2022-08-14T09:45:39.818Z,47.31
2022-08-14T09:48:29.865Z,46.52
2022-08-14T09:54:19.662Z,46.36
2022-08-14T09:56:30.852Z,49.95
2022-08-14T09:59:14.947Z,47.72
2022-08-14T10:01:53.245Z,48.95
2022-08-14T10:04:34.233Z,49.70
2022-08-14T10:07:05.101Z,51.32
2022-08-14T10:09:35.289Z,51.71
2022-08-14T10:12:06.803Z,50.44
2022-08-14T10:14:53.327Z,49.72
2022-08-14T10:17:32.948Z,50.96
2022-08-14T10:20:40.758Z,47.61
2022-08-14T10:23:22.316Z,49.62
2022-08-14T10:25:54.338Z,49.84
2022-08-14T10:28:39.033Z,44.82
2022-08-14T10:31:25.600Z,44.79
2022-08-14T10:34:02.834Z,45.79
2022-08-14T10:36:37.001Z,47.15
2022-08-14T10:39:17.262Z,47.10
2022-08-14T10:41:53.811Z,46.58
2022-08-14T10:44:29.708Z,48.88
2022-08-14T10:47:39.846Z,48.69
2022-08-14T10:50:00.652Z,48.64
2022-08-14T10:52:33.780Z,51.03
2022-08-14T10:55:13.935Z,50.97
2022-08-14T10:57:51.492Z,53.38
2022-08-14T11:00:29.446Z,52.59
2022-08-14T11:03:09.510Z,50.94
2022-08-14T11:05:45.391Z,50.14
2022-08-14T11:08:17.289Z,49.85
2022-08-14T11:10:49.102Z,48.92
2022-08-14T11:13:24.021Z,49.55
2022-08-14T11:15:56.131Z,50.19
2022-08-14T11:18:30.124Z,51.52
2022-08-14T11:21:03.006Z,51.80
2022-08-14T11:23:39.810Z,51.01
2022-08-14T11:26:11.391Z,51.26
2022-08-14T11:28:46.906Z,53.83
2022-08-14T11:31:23.538Z,52.88
2022-08-14T11:33:57.858Z,50.91
2022-08-14T11:36:35.036Z,51.56
2022-08-14T11:39:34.336Z,49.65
2022-08-14T11:42:07.736Z,49.93
2022-08-14T11:45:00.278Z,49.60
2022-08-14T11:47:35.074Z,49.85
2022-08-14T11:50:24.961Z,49.72
2022-08-14T11:53:04.797Z,51.79
2022-08-14T11:55:38.036Z,50.89
2022-08-14T11:58:23.721Z,50.64
2022-08-14T12:00:57.157Z,51.19
2022-08-14T12:03:51.264Z,51.25
2022-08-14T12:06:29.761Z,51.49
2022-08-14T12:09:15.281Z,51.40
2022-08-14T12:11:47.486Z,50.42
2022-08-14T12:14:29.881Z,52.82
2022-08-14T12:17:12.165Z,49.09
2022-08-14T12:19:50.927Z,47.44
2022-08-14T12:22:35.287Z,50.01
2022-08-14T12:25:10.921Z,47.33
2022-08-14T12:27:53.210Z,47.21
2022-08-14T12:30:42.589Z,49.82
2022-08-14T12:33:25.712Z,49.67
2022-08-14T12:36:05.816Z,51.16
2022-08-14T12:38:43.604Z,49.91
2022-08-14T12:41:21.027Z,49.25
2022-08-14T12:43:55.579Z,46.61
2022-08-14T12:46:28.465Z,44.88
2022-08-14T12:49:00.187Z,43.68
2022-08-14T12:51:31.712Z,40.26
2022-08-14T12:54:19.422Z,41.38
2022-08-14T12:57:07.952Z,38.77
2022-08-14T12:59:43.070Z,41.56
2022-08-14T13:02:25.269Z,42.41
2022-08-14T13:04:57.717Z,42.31
2022-08-14T13:07:32.418Z,39.02
2022-08-14T13:10:03.031Z,37.08
2022-08-14T13:13:13.142Z,36.96
2022-08-14T13:15:46.270Z,40.74
2022-08-14T13:18:17.809Z,39.32
2022-08-14T13:20:49.399Z,42.58
2022-08-14T13:23:31.584Z,43.19
2022-08-14T13:26:02.879Z,40.93
2022-08-14T13:28:41.342Z,40.48
2022-08-14T13:31:29.855Z,41.66
2022-08-14T13:34:00.143Z,41.72
2022-08-14T13:36:51.425Z,40.69
2022-08-14T13:39:21.090Z,40.44
2022-08-14T13:41:55.930Z,41.18
2022-08-14T13:44:28.888Z,39.16
2022-08-14T13:46:58.586Z,43.07
2022-08-14T13:49:29.165Z,41.34
2022-08-14T13:52:04.217Z,45.37
2022-08-14T13:54:37.469Z,40.68
2022-08-14T13:57:12.491Z,41.59
2022-08-14T13:59:46.597Z,42.52
2022-08-14T14:02:33.643Z,43.36
2022-08-14T14:05:05.752Z,41.52
2022-08-14T14:07:39.325Z,41.90
2022-08-14T14:10:13.576Z,41.42
2022-08-14T14:12:45.993Z,41.18
2022-08-14T14:15:33.927Z,40.07
2022-08-14T14:18:34.549Z,39.23
2022-08-14T14:21:06.563Z,40.91
2022-08-14T14:23:39.638Z,41.92
2022-08-14T14:26:13.789Z,40.32
2022-08-14T14:28:44.830Z,42.32
2022-08-14T14:31:16.270Z,41.03
2022-08-14T14:33:49.138Z,43.69
2022-08-14T14:36:21.762Z,44.64
2022-08-14T14:38:55.976Z,43.80
2022-08-14T14:41:26.678Z,44.99
2022-08-14T14:44:09.214Z,44.45
2022-08-14T14:46:43.424Z,45.37
2022-08-14T14:49:14.431Z,45.51
2022-08-14T14:51:46.903Z,45.59
2022-08-14T14:54:31.820Z,44.91
2022-08-14T14:57:09.177Z,41.67
2022-08-14T14:59:39.207Z,44.36
2022-08-14T15:02:11.888Z,46.57
2022-08-14T15:04:44.034Z,48.25
2022-08-14T15:07:16.295Z,48.28
2022-08-14T15:09:45.625Z,49.16
2022-08-14T15:12:56.502Z,49.49
2022-08-14T15:15:09.079Z,47.66
2022-08-14T15:17:41.217Z,46.14
2022-08-14T15:20:17.526Z,47.74
2022-08-14T15:23:08.219Z,48.58
2022-08-14T15:25:41.776Z,49.47
2022-08-14T15:28:12.707Z,45.49
2022-08-14T15:30:43.530Z,45.75
2022-08-14T15:33:14.418Z,46.31
2022-08-14T15:35:46.394Z,44.62
2022-08-14T15:38:17.778Z,44.21
2022-08-14T15:40:51.237Z,44.21
2022-08-14T15:43:27.340Z,41.74
2022-08-14T15:46:00.887Z,41.10
2022-08-14T15:48:31.951Z,41.39
2022-08-14T15:51:01.546Z,40.40
2022-08-14T15:53:31.637Z,40.37
2022-08-14T15:56:01.988Z,42.06
2022-08-14T15:58:31.424Z,40.83
2022-08-14T16:01:37.104Z,40.68
2022-08-14T16:04:11.959Z,41.36
2022-08-14T16:06:46.590Z,43.05
2022-08-14T16:09:24.127Z,43.26
2022-08-14T16:11:53.970Z,42.17
2022-08-14T16:14:24.253Z,39.57
2022-08-14T16:17:00.455Z,41.08
2022-08-14T16:19:32.403Z,39.59
2022-08-14T16:22:58.667Z,38.97
2022-08-14T16:25:05.111Z,40.02
2022-08-14T16:27:40.879Z,40.70
2022-08-14T16:30:25.349Z,41.00
2022-08-14T16:32:59.161Z,42.93
2022-08-14T16:35:43.140Z,42.02
2022-08-14T16:38:45.715Z,42.39
2022-08-14T16:41:18.062Z,42.69
2022-08-14T16:43:53.929Z,41.87
2022-08-14T16:46:32.689Z,43.49
2022-08-14T16:49:02.559Z,43.77
2022-08-14T16:51:36.432Z,45.01
2022-08-14T16:54:20.819Z,44.25
2022-08-14T16:57:15.932Z,44.61
2022-08-14T16:59:57.414Z,45.26
2022-08-14T17:02:37.008Z,45.26
2022-08-14T17:05:18.934Z,46.67
2022-08-14T17:08:32.653Z,46.78
2022-08-14T17:11:04.626Z,46.63
2022-08-14T17:13:59.934Z,47.40
2022-08-14T17:16:33.061Z,48.78
2022-08-14T17:19:09.813Z,49.00
2022-08-14T17:21:47.266Z,48.66
2022-08-14T17:24:56.282Z,49.37
2022-08-14T17:27:09.106Z,49.29
2022-08-14T17:29:44.839Z,49.19
2022-08-14T17:32:44.076Z,49.46
2022-08-14T17:35:16.629Z,51.18
2022-08-14T17:37:55.768Z,51.30
2022-08-14T17:40:31.843Z,51.37
2022-08-14T17:43:02.486Z,51.35
2022-08-14T17:45:46.774Z,52.57
2022-08-14T17:49:16.014Z,52.71
2022-08-14T17:51:22.049Z,52.80
2022-08-14T17:54:02.412Z,53.37
2022-08-14T17:56:36.190Z,53.75
2022-08-14T17:59:08.667Z,54.02
2022-08-14T18:01:45.713Z,54.34
2022-08-14T18:04:25.099Z,54.46
2022-08-14T18:07:16.469Z,54.76
2022-08-14T18:09:59.045Z,55.33
2022-08-14T18:12:32.895Z,55.57
2022-08-14T18:15:14.546Z,56.12
2022-08-14T18:17:53.400Z,56.33
2022-08-14T18:21:39.879Z,56.74
2022-08-14T18:23:14.917Z,57.01
2022-08-14T18:25:49.732Z,57.11
2022-08-14T18:28:50.955Z,57.51
2022-08-14T18:31:43.446Z,57.77
2022-08-14T18:34:32.102Z,57.99
2022-08-14T18:37:17.346Z,58.52
2022-08-14T18:40:01.957Z,58.30
2022-08-14T18:42:57.200Z,58.89
2022-08-14T18:45:34.311Z,58.74
2022-08-14T18:48:33.305Z,59.32
2022-08-14T18:51:45.143Z,59.78
2022-08-14T18:54:32.754Z,59.31
2022-08-14T18:57:05.235Z,60.25
2022-08-14T18:59:40.194Z,59.70
2022-08-14T19:02:44.413Z,60.16
2022-08-14T19:05:15.021Z,60.13
2022-08-14T19:07:48.159Z,60.39
2022-08-14T19:10:37.566Z,61.17
2022-08-14T19:13:12.068Z,60.56
2022-08-14T19:15:44.748Z,61.31
2022-08-14T19:18:29.267Z,61.14
2022-08-14T19:21:00.597Z,61.16
2022-08-14T19:23:43.940Z,60.48
2022-08-14T19:26:35.664Z,61.46
2022-08-14T19:29:36.176Z,61.26
2022-08-14T19:32:22.692Z,61.30
2022-08-14T19:34:53.996Z,60.86
2022-08-14T19:37:52.333Z,61.41
2022-08-14T19:40:35.248Z,61.24
2022-08-14T19:43:06.667Z,60.62
2022-08-14T19:45:39.733Z,60.49
2022-08-14T19:48:16.107Z,60.87
2022-08-14T19:50:47.182Z,60.63
2022-08-14T19:53:18.397Z,61.14
2022-08-14T19:56:01.865Z,61.56
2022-08-14T19:58:55.441Z,60.95
2022-08-14T20:01:37.697Z,61.49
2022-08-14T20:04:46.327Z,61.60
2022-08-14T20:07:02.168Z,61.32
2022-08-14T20:11:07.974Z,61.50
2022-08-14T20:12:36.677Z,61.30
2022-08-14T20:15:46.746Z,61.70
2022-08-14T20:18:49.585Z,61.95
2022-08-14T20:21:14.933Z,61.86
2022-08-14T20:23:48.094Z,61.70
2022-08-14T20:26:30.442Z,61.54
2022-08-14T20:29:05.213Z,62.06
2022-08-14T20:31:38.585Z,62.49
2022-08-14T20:34:24.809Z,62.84
2022-08-14T20:37:09.541Z,61.91
2022-08-14T20:39:45.025Z,61.82
2022-08-14T20:42:49.351Z,62.89
2022-08-14T20:45:24.212Z,62.61
2022-08-14T20:48:01.194Z,62.26
2022-08-14T20:50:31.835Z,63.31
2022-08-14T20:53:05.849Z,63.19
2022-08-14T20:55:41.661Z,62.43
2022-08-14T20:58:38.720Z,62.81
2022-08-14T21:01:35.751Z,62.93
2022-08-14T21:04:22.265Z,62.96
2022-08-14T21:07:33.485Z,62.95
2022-08-14T21:10:06.282Z,62.42
2022-08-14T21:12:35.700Z,62.85
2022-08-14T21:15:11.118Z,62.35
2022-08-14T21:17:43.260Z,62.66
2022-08-14T21:20:25.342Z,61.53
2022-08-14T21:23:00.546Z,61.56
2022-08-14T21:25:31.826Z,62.38
2022-08-14T21:28:04.921Z,60.78
2022-08-14T21:30:51.304Z,61.68
2022-08-14T21:33:24.004Z,61.93
2022-08-14T21:35:54.985Z,62.15
2022-08-14T21:38:31.318Z,61.22
2022-08-14T21:41:42.371Z,61.59
2022-08-14T21:44:05.245Z,62.60
2022-08-14T21:46:49.972Z,61.54
2022-08-14T21:49:23.744Z,61.54
2022-08-14T21:51:59.958Z,62.19
2022-08-14T21:54:49.490Z,62.58
2022-08-14T21:57:55.751Z,62.26
2022-08-14T22:00:35.584Z,62.42
2022-08-14T22:03:08.986Z,62.15
2022-08-14T22:05:41.974Z,62.82
2022-08-14T22:08:14.068Z,62.23
2022-08-14T22:10:46.534Z,62.97
2022-08-14T22:13:17.531Z,61.81
2022-08-14T22:15:49.460Z,61.71
2022-08-14T22:18:21.186Z,61.97
2022-08-14T22:20:56.543Z,62.87
2022-08-14T22:23:27.092Z,62.42
2022-08-14T22:25:56.816Z,62.76
2022-08-14T22:28:32.669Z,62.90
2022-08-14T22:31:10.496Z,63.73
2022-08-14T22:33:43.035Z,64.09
2022-08-14T22:36:34.259Z,63.86
2022-08-14T22:39:11.556Z,62.85
2022-08-14T22:41:42.469Z,63.67
2022-08-14T22:44:16.201Z,63.41
2022-08-14T22:46:45.564Z,63.84
2022-08-14T22:49:15.806Z,63.89
2022-08-14T22:52:33.158Z,64.75
2022-08-14T22:54:59.038Z,64.47
2022-08-14T22:57:37.879Z,65.25
2022-08-14T23:00:16.203Z,65.41
2022-08-14T23:02:47.101Z,64.79
2022-08-14T23:05:39.183Z,65.61
2022-08-14T23:08:56.207Z,65.72
2022-08-14T23:11:01.865Z,65.14
2022-08-14T23:13:33.253Z,65.74
2022-08-14T23:16:02.682Z,65.47
2022-08-14T23:18:32.453Z,65.63
2022-08-14T23:21:02.068Z,65.95
2022-08-14T23:23:32.417Z,66.21
2022-08-14T23:26:48.442Z,66.44
2022-08-14T23:28:58.661Z,66.88
2022-08-14T23:31:35.752Z,67.19
2022-08-14T23:34:07.608Z,67.07
2022-08-14T23:36:53.076Z,67.29
2022-08-14T23:39:29.405Z,67.62
2022-08-14T23:42:02.536Z,67.50
2022-08-14T23:44:36.799Z,67.81
2022-08-14T23:47:11.766Z,67.95
2022-08-14T23:50:00.587Z,68.50
2022-08-14T23:53:06.218Z,68.77
2022-08-14T23:55:27.893Z,68.54
2022-08-14T23:58:00.464Z,69.36
